sensor_id;sensor_type;location;lat;lon;timestamp;pressure;altitude;pressure_sealevel;temperature;humidity
35519;BME280;21627;48.216;16.482;2022-08-24T00:02:04;99982.00;;;17.99;100.00
35519;BME280;21627;48.216;16.482;2022-08-24T00:04:34;99971.59;;;17.98;100.00
35519;BME280;21627;48.216;16.482;2022-08-24T00:07:03;99975.09;;;17.97;100.00
35519;BME280;21627;48.216;16.482;2022-08-24T00:09:33;99971.72;;;17.93;100.00
35519;BME280;21627;48.216;16.482;2022-08-24T00:12:01;99980.47;;;17.92;100.00
35519;BME280;21627;48.216;16.482;2022-08-24T00:14:29;99978.66;;;17.94;100.00
35519;BME280;21627;48.216;16.482;2022-08-24T00:16:58;99991.75;;;17.94;100.00
35519;BME280;21627;48.216;16.482;2022-08-24T00:19:27;99988.28;;;17.93;100.00
35519;BME280;21627;48.216;16.482;2022-08-24T00:22:00;99995.25;;;17.93;100.00
35519;BME280;21627;48.216;16.482;2022-08-24T00:24:27;99986.66;;;17.89;100.00
35519;BME280;21627;48.216;16.482;2022-08-24T00:26:58;99988.38;;;17.89;100.00
35519;BME280;21627;48.216;16.482;2022-08-24T00:29:25;99996.19;;;17.92;100.00
35519;BME280;21627;48.216;16.482;2022-08-24T00:31:53;99984.97;;;17.87;100.00
35519;BME280;21627;48.216;16.482;2022-08-24T00:34:20;99998.78;;;17.92;100.00
35519;BME280;21627;48.216;16.482;2022-08-24T00:36:47;100005.81;;;17.90;100.00
35519;BME280;21627;48.216;16.482;2022-08-24T00:39:15;100004.91;;;17.91;100.00
35519;BME280;21627;48.216;16.482;2022-08-24T00:41:49;99993.72;;;17.86;100.00
35519;BME280;21627;48.216;16.482;2022-08-24T00:44:18;100005.72;;;17.93;100.00
35519;BME280;21627;48.216;16.482;2022-08-24T00:47:01;99998.81;;;17.90;100.00
35519;BME280;21627;48.216;16.482;2022-08-24T00:49:55;100010.13;;;17.91;100.00
35519;BME280;21627;48.216;16.482;2022-08-24T00:55:10;100015.38;;;17.91;100.00
35519;BME280;21627;48.216;16.482;2022-08-24T00:57:42;100009.31;;;17.89;100.00
35519;BME280;21627;48.216;16.482;2022-08-24T01:00:29;99993.78;;;17.83;100.00
35519;BME280;21627;48.216;16.482;2022-08-24T01:03:03;100007.59;;;17.89;100.00
35519;BME280;21627;48.216;16.482;2022-08-24T01:05:37;100004.97;;;17.89;100.00
35519;BME280;21627;48.216;16.482;2022-08-24T01:08:07;100001.63;;;17.84;100.00
35519;BME280;21627;48.216;16.482;2022-08-24T01:10:46;100000.72;;;17.84;100.00
35519;BME280;21627;48.216;16.482;2022-08-24T01:13:14;100014.53;;;17.89;100.00
35519;BME280;21627;48.216;16.482;2022-08-24T01:15:47;100014.59;;;17.87;100.00
35519;BME280;21627;48.216;16.482;2022-08-24T01:18:22;100015.44;;;17.89;100.00
35519;BME280;21627;48.216;16.482;2022-08-24T01:21:42;100006.59;;;17.93;100.00
35519;BME280;21627;48.216;16.482;2022-08-24T01:24:13;100013.59;;;17.93;100.00
35519;BME280;21627;48.216;16.482;2022-08-24T01:26:48;100003.94;;;17.95;100.00
35519;BME280;21627;48.216;16.482;2022-08-24T01:29:24;100001.47;;;17.89;100.00
35519;BME280;21627;48.216;16.482;2022-08-24T01:31:53;100008.53;;;17.87;100.00
35519;BME280;21627;48.216;16.482;2022-08-24T01:34:20;100016.19;;;17.93;100.00
35519;BME280;21627;48.216;16.482;2022-08-24T01:36:51;100004.78;;;17.95;100.00
35519;BME280;21627;48.216;16.482;2022-08-24T01:41:55;100017.06;;;17.93;100.00
35519;BME280;21627;48.216;16.482;2022-08-24T01:44:30;100012.75;;;17.91;100.00
35519;BME280;21627;48.216;16.482;2022-08-24T01:47:00;100009.38;;;17.87;100.00
35519;BME280;21627;48.216;16.482;2022-08-24T01:49:38;100012.00;;;17.86;100.00
35519;BME280;21627;48.216;16.482;2022-08-24T01:52:11;100015.38;;;17.91;100.00
35519;BME280;21627;48.216;16.482;2022-08-24T01:54:43;100017.97;;;17.92;100.00
35519;BME280;21627;48.216;16.482;2022-08-24T01:57:11;100005.06;;;17.85;100.00
35519;BME280;21627;48.216;16.482;2022-08-24T01:59:42;100003.19;;;17.90;100.00
35519;BME280;21627;48.216;16.482;2022-08-24T02:02:22;100010.13;;;17.91;100.00
35519;BME280;21627;48.216;16.482;2022-08-24T02:04:50;100001.47;;;17.89;100.00
35519;BME280;21627;48.216;16.482;2022-08-24T02:07:18;100002.41;;;17.86;100.00
35519;BME280;21627;48.216;16.482;2022-08-24T02:09:46;100002.38;;;17.88;100.00
35519;BME280;21627;48.216;16.482;2022-08-24T02:12:13;100016.22;;;17.91;100.00
35519;BME280;21627;48.216;16.482;2022-08-24T02:14:44;100001.53;;;17.87;100.00
35519;BME280;21627;48.216;16.482;2022-08-24T02:17:12;100004.06;;;17.90;100.00
35519;BME280;21627;48.216;16.482;2022-08-24T02:19:43;100013.59;;;17.93;100.00
35519;BME280;21627;48.216;16.482;2022-08-24T02:22:11;100000.69;;;17.85;100.00
35519;BME280;21627;48.216;16.482;2022-08-24T02:24:38;100011.81;;;17.93;100.00
35519;BME280;21627;48.216;16.482;2022-08-24T02:27:06;100007.44;;;17.94;100.00
35519;BME280;21627;48.216;16.482;2022-08-24T02:29:34;99998.94;;;17.86;100.00
35519;BME280;21627;48.216;16.482;2022-08-24T02:32:01;100009.28;;;17.90;100.00
35519;BME280;21627;48.216;16.482;2022-08-24T02:34:28;100006.66;;;17.90;100.00
35519;BME280;21627;48.216;16.482;2022-08-24T02:36:56;100009.31;;;17.89;100.00
35519;BME280;21627;48.216;16.482;2022-08-24T02:39:27;100011.91;;;17.90;100.00
35519;BME280;21627;48.216;16.482;2022-08-24T02:41:55;100020.59;;;17.91;100.00
35519;BME280;21627;48.216;16.482;2022-08-24T02:44:26;100009.50;;;17.81;100.00
35519;BME280;21627;48.216;16.482;2022-08-24T02:46:56;100026.84;;;17.87;100.00
35519;BME280;21627;48.216;16.482;2022-08-24T02:49:24;100021.59;;;17.87;100.00
35519;BME280;21627;48.216;16.482;2022-08-24T02:51:53;100027.72;;;17.86;100.00
35519;BME280;21627;48.216;16.482;2022-08-24T02:54:21;100028.63;;;17.85;100.00
35519;BME280;21627;48.216;16.482;2022-08-24T02:56:52;100021.66;;;17.84;100.00
35519;BME280;21627;48.216;16.482;2022-08-24T02:59:21;100010.41;;;17.79;100.00
35519;BME280;21627;48.216;16.482;2022-08-24T03:01:49;100016.50;;;17.81;100.00
35519;BME280;21627;48.216;16.482;2022-08-24T03:04:18;100024.16;;;17.88;100.00
35519;BME280;21627;48.216;16.482;2022-08-24T03:06:45;100007.84;;;17.77;100.00
35519;BME280;21627;48.216;16.482;2022-08-24T03:09:12;100023.22;;;17.91;100.00
35519;BME280;21627;48.216;16.482;2022-08-24T03:11:40;100028.44;;;17.92;100.00
35519;BME280;21627;48.216;16.482;2022-08-24T03:14:12;100030.19;;;17.92;100.00
35519;BME280;21627;48.216;16.482;2022-08-24T03:16:40;100022.53;;;17.84;100.00
35519;BME280;21627;48.216;16.482;2022-08-24T03:19:07;100031.97;;;17.90;100.00
35519;BME280;21627;48.216;16.482;2022-08-24T03:21:34;100029.38;;;17.90;100.00
35519;BME280;21627;48.216;16.482;2022-08-24T03:24:02;100033.69;;;17.91;100.00
35519;BME280;21627;48.216;16.482;2022-08-24T03:26:29;100027.72;;;17.86;100.00
35519;BME280;21627;48.216;16.482;2022-08-24T03:28:57;100019.13;;;17.81;100.00
35519;BME280;21627;48.216;16.482;2022-08-24T03:31:25;100024.28;;;17.84;100.00
35519;BME280;21627;48.216;16.482;2022-08-24T03:33:53;100027.81;;;17.81;100.00
35519;BME280;21627;48.216;16.482;2022-08-24T03:36:20;100022.75;;;17.73;100.00
35519;BME280;21627;48.216;16.482;2022-08-24T03:38:47;100023.50;;;17.80;100.00
35519;BME280;21627;48.216;16.482;2022-08-24T03:41:16;100022.66;;;17.80;100.00
35519;BME280;21627;48.216;16.482;2022-08-24T03:43:43;100008.91;;;17.70;100.00
35519;BME280;21627;48.216;16.482;2022-08-24T03:46:26;100014.13;;;17.71;100.00
35519;BME280;21627;48.216;16.482;2022-08-24T03:48:58;100016.59;;;17.76;100.00
35519;BME280;21627;48.216;16.482;2022-08-24T03:51:27;100014.13;;;17.70;100.00
35519;BME280;21627;48.216;16.482;2022-08-24T03:53:59;100027.97;;;17.73;100.00
35519;BME280;21627;48.216;16.482;2022-08-24T03:56:26;100017.72;;;17.66;100.00
35519;BME280;21627;48.216;16.482;2022-08-24T03:58:54;100037.66;;;17.71;100.00
35519;BME280;21627;48.216;16.482;2022-08-24T04:01:22;100039.28;;;17.76;100.00
35519;BME280;21627;48.216;16.482;2022-08-24T04:03:50;100032.41;;;17.71;100.00
35519;BME280;21627;48.216;16.482;2022-08-24T04:06:23;100041.88;;;17.76;100.00
35519;BME280;21627;48.216;16.482;2022-08-24T04:08:55;100025.44;;;17.72;100.00
35519;BME280;21627;48.216;16.482;2022-08-24T04:11:28;100029.81;;;17.70;100.00
35519;BME280;21627;48.216;16.482;2022-08-24T04:13:57;100036.59;;;17.80;100.00
35519;BME280;21627;48.216;16.482;2022-08-24T04:16:26;100028.03;;;17.72;100.00
35519;BME280;21627;48.216;16.482;2022-08-24T04:18:56;100022.84;;;17.70;100.00
35519;BME280;21627;48.216;16.482;2022-08-24T04:21:31;100027.09;;;17.74;100.00
35519;BME280;21627;48.216;16.482;2022-08-24T04:24:07;100029.66;;;17.76;100.00
35519;BME280;21627;48.216;16.482;2022-08-24T04:26:40;100027.94;;;17.77;100.00
35519;BME280;21627;48.216;16.482;2022-08-24T04:29:13;100023.78;;;17.68;100.00
35519;BME280;21627;48.216;16.482;2022-08-24T04:31:42;100029.84;;;17.68;100.00
35519;BME280;21627;48.216;16.482;2022-08-24T04:34:12;100026.41;;;17.66;100.00
35519;BME280;21627;48.216;16.482;2022-08-24T04:36:43;100025.53;;;17.67;100.00
35519;BME280;21627;48.216;16.482;2022-08-24T04:39:11;100015.94;;;17.68;100.00
35519;BME280;21627;48.216;16.482;2022-08-24T04:41:38;100028.06;;;17.70;100.00
35519;BME280;21627;48.216;16.482;2022-08-24T04:44:07;100022.91;;;17.69;100.00
35519;BME280;21627;48.216;16.482;2022-08-24T04:46:35;100040.94;;;17.78;100.00
35519;BME280;21627;48.216;16.482;2022-08-24T04:49:02;100044.47;;;17.77;100.00
35519;BME280;21627;48.216;16.482;2022-08-24T04:51:30;100035.03;;;17.71;100.00
35519;BME280;21627;48.216;16.482;2022-08-24T04:54:04;100047.91;;;17.79;100.00
35519;BME280;21627;48.216;16.482;2022-08-24T04:56:32;100044.41;;;17.82;100.00
35519;BME280;21627;48.216;16.482;2022-08-24T04:58:59;100051.38;;;17.81;100.00
35519;BME280;21627;48.216;16.482;2022-08-24T05:01:28;100053.00;;;17.87;100.00
35519;BME280;21627;48.216;16.482;2022-08-24T05:03:56;100051.31;;;17.84;100.00
35519;BME280;21627;48.216;16.482;2022-08-24T05:06:27;100063.31;;;17.91;100.00
35519;BME280;21627;48.216;16.482;2022-08-24T05:09:03;100046.03;;;17.86;100.00
35519;BME280;21627;48.216;16.482;2022-08-24T05:11:31;100042.44;;;17.90;100.00
35519;BME280;21627;48.216;16.482;2022-08-24T05:13:59;100038.03;;;17.92;100.00
35519;BME280;21627;48.216;16.482;2022-08-24T05:16:26;100042.16;;;18.01;100.00
35519;BME280;21627;48.216;16.482;2022-08-24T05:18:56;100037.66;;;18.06;100.00
35519;BME280;21627;48.216;16.482;2022-08-24T05:21:24;100040.25;;;18.07;100.00
35519;BME280;21627;48.216;16.482;2022-08-24T05:23:51;100023.53;;;18.13;100.00
35519;BME280;21627;48.216;16.482;2022-08-24T05:26:25;100032.88;;;18.22;100.00
35519;BME280;21627;48.216;16.482;2022-08-24T05:28:56;100017.31;;;18.17;100.00
35519;BME280;21627;48.216;16.482;2022-08-24T05:31:27;100025.09;;;18.19;100.00
35519;BME280;21627;48.216;16.482;2022-08-24T05:33:55;100025.94;;;18.21;100.00
35519;BME280;21627;48.216;16.482;2022-08-24T05:36:32;100035.34;;;18.28;100.00
35519;BME280;21627;48.216;16.482;2022-08-24T05:39:03;100036.91;;;18.35;100.00
35519;BME280;21627;48.216;16.482;2022-08-24T05:41:37;100035.09;;;18.37;100.00
35519;BME280;21627;48.216;16.482;2022-08-24T05:44:12;100041.22;;;18.36;100.00
35519;BME280;21627;48.216;16.482;2022-08-24T05:46:39;100038.66;;;18.34;100.00
35519;BME280;21627;48.216;16.482;2022-08-24T05:49:07;100051.47;;;18.44;100.00
35519;BME280;21627;48.216;16.482;2022-08-24T05:51:35;100046.97;;;18.49;100.00
35519;BME280;21627;48.216;16.482;2022-08-24T05:54:06;100050.50;;;18.48;100.00
35519;BME280;21627;48.216;16.482;2022-08-24T05:56:33;100030.44;;;18.47;100.00
35519;BME280;21627;48.216;16.482;2022-08-24T05:59:01;100031.31;;;18.47;100.00
35519;BME280;21627;48.216;16.482;2022-08-24T06:01:29;100032.78;;;18.57;100.00
35519;BME280;21627;48.216;16.482;2022-08-24T06:03:58;100040.63;;;18.57;100.00
35519;BME280;21627;48.216;16.482;2022-08-24T06:06:29;100029.22;;;18.60;100.00
35519;BME280;21627;48.216;16.482;2022-08-24T06:08:59;100024.00;;;18.58;100.00
35519;BME280;21627;48.216;16.482;2022-08-24T06:11:38;100031.56;;;18.69;100.00
35519;BME280;21627;48.216;16.482;2022-08-24T06:14:10;100040.28;;;18.70;100.00
35519;BME280;21627;48.216;16.482;2022-08-24T06:16:42;100034.03;;;18.74;100.00
35519;BME280;21627;48.216;16.482;2022-08-24T06:19:14;100027.09;;;18.73;100.00
35519;BME280;21627;48.216;16.482;2022-08-24T06:21:44;100039.06;;;18.83;100.00
35519;BME280;21627;48.216;16.482;2022-08-24T06:24:18;100033.53;;;18.92;100.00
35519;BME280;21627;48.216;16.482;2022-08-24T06:27:06;100031.63;;;18.97;100.00
35519;BME280;21627;48.216;16.482;2022-08-24T06:30:00;100026.47;;;18.94;100.00
35519;BME280;21627;48.216;16.482;2022-08-24T06:32:28;100032.56;;;18.95;100.00
35519;BME280;21627;48.216;16.482;2022-08-24T06:34:58;100038.50;;;19.01;100.00
35519;BME280;21627;48.216;16.482;2022-08-24T06:37:28;100038.50;;;19.01;100.00
35519;BME280;21627;48.216;16.482;2022-08-24T06:39:57;100054.06;;;19.08;100.00
35519;BME280;21627;48.216;16.482;2022-08-24T06:42:25;100055.75;;;19.09;100.00
35519;BME280;21627;48.216;16.482;2022-08-24T06:44:52;100039.34;;;19.02;100.00
35519;BME280;21627;48.216;16.482;2022-08-24T06:47:23;100053.03;;;19.12;100.00
35519;BME280;21627;48.216;16.482;2022-08-24T06:49:50;100039.13;;;19.10;100.00
35519;BME280;21627;48.216;16.482;2022-08-24T06:52:17;100051.09;;;19.18;100.00
35519;BME280;21627;48.216;16.482;2022-08-24T06:54:48;100044.81;;;19.24;100.00
35519;BME280;21627;48.216;16.482;2022-08-24T06:57:15;100049.91;;;19.29;100.00
35519;BME280;21627;48.216;16.482;2022-08-24T06:59:42;100055.28;;;19.24;100.00
35519;BME280;21627;48.216;16.482;2022-08-24T07:02:10;100042.22;;;19.22;100.00
35519;BME280;21627;48.216;16.482;2022-08-24T07:04:41;100044.59;;;19.30;100.00
35519;BME280;21627;48.216;16.482;2022-08-24T07:07:09;100037.38;;;19.38;100.00
35519;BME280;21627;48.216;16.482;2022-08-24T07:09:37;100046.59;;;19.50;100.00
35519;BME280;21627;48.216;16.482;2022-08-24T07:12:04;100041.16;;;19.56;100.00
35519;BME280;21627;48.216;16.482;2022-08-24T07:14:32;100041.78;;;19.64;100.00
35519;BME280;21627;48.216;16.482;2022-08-24T07:16:59;100042.41;;;19.73;100.00
35519;BME280;21627;48.216;16.482;2022-08-24T07:19:27;100032.56;;;19.79;100.00
35519;BME280;21627;48.216;16.482;2022-08-24T07:21:57;100028.03;;;19.84;100.00
35519;BME280;21627;48.216;16.482;2022-08-24T07:24:25;100043.25;;;20.00;100.00
35519;BME280;21627;48.216;16.482;2022-08-24T07:26:52;100049.16;;;20.06;100.00
35519;BME280;21627;48.216;16.482;2022-08-24T07:29:19;100040.63;;;20.00;100.00
35519;BME280;21627;48.216;16.482;2022-08-24T07:32:10;100043.09;;;20.04;100.00
35519;BME280;21627;48.216;16.482;2022-08-24T07:34:41;100067.03;;;20.20;100.00
35519;BME280;21627;48.216;16.482;2022-08-24T07:37:09;100057.38;;;20.21;100.00
35519;BME280;21627;48.216;16.482;2022-08-24T07:39:37;100067.75;;;20.25;100.00
35519;BME280;21627;48.216;16.482;2022-08-24T07:42:05;100056.63;;;20.19;100.00
35519;BME280;21627;48.216;16.482;2022-08-24T07:44:41;100069.47;;;20.26;100.00
35519;BME280;21627;48.216;16.482;2022-08-24T07:47:09;100058.81;;;20.31;100.00
35519;BME280;21627;48.216;16.482;2022-08-24T07:49:56;100069.81;;;20.41;100.00
35519;BME280;21627;48.216;16.482;2022-08-24T07:52:26;100074.06;;;20.45;100.00
35519;BME280;21627;48.216;16.482;2022-08-24T07:54:54;100063.44;;;20.48;100.00
35519;BME280;21627;48.216;16.482;2022-08-24T07:57:22;100070.75;;;20.65;100.00
35519;BME280;21627;48.216;16.482;2022-08-24T07:59:49;100049.75;;;20.65;100.00
35519;BME280;21627;48.216;16.482;2022-08-24T08:02:16;100050.81;;;20.83;100.00
35519;BME280;21627;48.216;16.482;2022-08-24T08:04:44;100053.84;;;20.95;100.00
35519;BME280;21627;48.216;16.482;2022-08-24T08:07:11;100043.38;;;20.94;100.00
35519;BME280;21627;48.216;16.482;2022-08-24T08:09:40;100049.13;;;21.04;100.00
35519;BME280;21627;48.216;16.482;2022-08-24T08:12:08;100046.28;;;21.10;100.00
35519;BME280;21627;48.216;16.482;2022-08-24T08:14:35;100057.31;;;21.20;100.00
35519;BME280;21627;48.216;16.482;2022-08-24T08:17:04;100045.88;;;21.21;100.00
35519;BME280;21627;48.216;16.482;2022-08-24T08:19:32;100066.66;;;21.27;100.00
35519;BME280;21627;48.216;16.482;2022-08-24T08:22:01;100062.09;;;21.32;100.00
35519;BME280;21627;48.216;16.482;2022-08-24T08:24:48;100067.22;;;21.35;100.00
35519;BME280;21627;48.216;16.482;2022-08-24T08:27:20;100071.28;;;21.44;100.00
35519;BME280;21627;48.216;16.482;2022-08-24T08:29:47;100068.75;;;21.42;100.00
35519;BME280;21627;48.216;16.482;2022-08-24T08:32:14;100074.84;;;21.43;100.00
35519;BME280;21627;48.216;16.482;2022-08-24T08:34:46;100076.31;;;21.50;100.00
35519;BME280;21627;48.216;16.482;2022-08-24T08:37:16;100072.28;;;21.63;100.00
35519;BME280;21627;48.216;16.482;2022-08-24T08:39:47;100074.59;;;21.71;100.00
35519;BME280;21627;48.216;16.482;2022-08-24T08:42:35;100074.47;;;21.74;100.00
35519;BME280;21627;48.216;16.482;2022-08-24T08:45:29;100083.81;;;21.81;100.00
35519;BME280;21627;48.216;16.482;2022-08-24T08:51:38;100070.66;;;21.81;100.00
35519;BME280;21627;48.216;16.482;2022-08-24T08:55:20;100072.31;;;21.83;100.00
35519;BME280;21627;48.216;16.482;2022-08-24T08:57:53;100072.25;;;21.85;100.00
35519;BME280;21627;48.216;16.482;2022-08-24T09:00:48;100072.25;;;21.85;100.00
35519;BME280;21627;48.216;16.482;2022-08-24T09:04:04;100080.16;;;21.85;100.00
35519;BME280;21627;48.216;16.482;2022-08-24T09:07:10;100082.56;;;21.90;100.00
35519;BME280;21627;48.216;16.482;2022-08-24T09:10:13;100077.06;;;21.96;100.00
35519;BME280;21627;48.216;16.482;2022-08-24T09:16:28;100077.13;;;22.15;100.00
35519;BME280;21627;48.216;16.482;2022-08-24T09:22:19;100067.94;;;22.25;100.00
35519;BME280;21627;48.216;16.482;2022-08-24T10:00:47;100070.94;;;22.96;91.46
35519;BME280;21627;48.216;16.482;2022-08-24T10:04:03;100072.06;;;22.90;95.68
35519;BME280;21627;48.216;16.482;2022-08-24T10:09:57;100060.34;;;22.98;97.95
35519;BME280;21627;48.216;16.482;2022-08-24T10:13:06;100053.81;;;23.06;98.05
35519;BME280;21627;48.216;16.482;2022-08-24T10:24:33;100049.16;;;23.11;94.00
35519;BME280;21627;48.216;16.482;2022-08-24T10:27:19;100041.25;;;23.11;94.76
35519;BME280;21627;48.216;16.482;2022-08-24T10:33:17;100044.09;;;23.26;92.75
35519;BME280;21627;48.216;16.482;2022-08-24T10:40:02;100039.34;;;23.51;93.79
35519;BME280;21627;48.216;16.482;2022-08-24T10:55:28;100024.63;;;24.17;85.36
35519;BME280;21627;48.216;16.482;2022-08-24T10:58:28;100027.53;;;24.28;84.78
35519;BME280;21627;48.216;16.482;2022-08-24T11:04:28;100033.75;;;24.62;84.64
35519;BME280;21627;48.216;16.482;2022-08-24T11:07:18;100030.31;;;24.60;79.39
35519;BME280;21627;48.216;16.482;2022-08-24T11:09:58;100040.03;;;24.59;81.17
35519;BME280;21627;48.216;16.482;2022-08-24T11:12:38;100028.09;;;24.52;81.83
35519;BME280;21627;48.216;16.482;2022-08-24T11:15:18;100039.50;;;24.53;83.02
35519;BME280;21627;48.216;16.482;2022-08-24T11:17:59;100027.38;;;24.49;82.99
35519;BME280;21627;48.216;16.482;2022-08-24T11:20:43;100043.25;;;24.49;80.27
35519;BME280;21627;48.216;16.482;2022-08-24T11:23:19;100041.13;;;24.55;80.93
35519;BME280;21627;48.216;16.482;2022-08-24T11:26:02;100040.31;;;24.71;80.19
35519;BME280;21627;48.216;16.482;2022-08-24T11:28:46;100041.03;;;24.90;80.68
35519;BME280;21627;48.216;16.482;2022-08-24T11:31:34;100033.09;;;25.06;74.90
35519;BME280;21627;48.216;16.482;2022-08-24T11:34:16;100022.16;;;25.12;75.19
35519;BME280;21627;48.216;16.482;2022-08-24T11:36:44;100038.72;;;25.16;75.54
35519;BME280;21627;48.216;16.482;2022-08-24T11:39:25;100025.59;;;25.30;74.65
35519;BME280;21627;48.216;16.482;2022-08-24T11:44:48;100025.09;;;25.23;75.87
35519;BME280;21627;48.216;16.482;2022-08-24T11:56:40;100034.09;;;25.51;71.29
35519;BME280;21627;48.216;16.482;2022-08-24T11:59:23;100021.97;;;25.63;70.26
35519;BME280;21627;48.216;16.482;2022-08-24T12:02:07;100024.81;;;25.74;72.31
35519;BME280;21627;48.216;16.482;2022-08-24T12:05:19;100034.78;;;26.01;72.89
35519;BME280;21627;48.216;16.482;2022-08-24T12:16:46;100037.25;;;26.18;68.33
35519;BME280;21627;48.216;16.482;2022-08-24T12:19:39;100030.63;;;26.25;65.29
35519;BME280;21627;48.216;16.482;2022-08-24T12:22:12;100022.50;;;26.28;66.38
35519;BME280;21627;48.216;16.482;2022-08-24T12:24:53;100029.22;;;26.20;66.05
35519;BME280;21627;48.216;16.482;2022-08-24T12:27:33;100033.81;;;26.02;66.56
35519;BME280;21627;48.216;16.482;2022-08-24T12:30:16;100022.38;;;26.16;68.25
35519;BME280;21627;48.216;16.482;2022-08-24T12:32:50;100021.47;;;26.31;66.44
35519;BME280;21627;48.216;16.482;2022-08-24T12:35:35;100022.13;;;26.49;67.23
35519;BME280;21627;48.216;16.482;2022-08-24T12:38:26;100024.44;;;26.69;66.98
35519;BME280;21627;48.216;16.482;2022-08-24T12:41:07;100008.59;;;26.82;66.40
35519;BME280;21627;48.216;16.482;2022-08-24T12:44:12;100011.81;;;26.87;63.71
35519;BME280;21627;48.216;16.482;2022-08-24T12:46:51;100018.91;;;26.72;63.19
35519;BME280;21627;48.216;16.482;2022-08-24T12:49:57;100017.94;;;27.02;65.99
35519;BME280;21627;48.216;16.482;2022-08-24T13:01:24;99990.22;;;27.21;61.33
35519;BME280;21627;48.216;16.482;2022-08-24T13:06:51;99998.34;;;27.17;65.35
35519;BME280;21627;48.216;16.482;2022-08-24T13:09:35;99997.00;;;26.97;65.36
35519;BME280;21627;48.216;16.482;2022-08-24T13:23:15;99990.16;;;26.66;66.88
35519;BME280;21627;48.216;16.482;2022-08-24T13:37:13;99994.25;;;27.26;65.47
35519;BME280;21627;48.216;16.482;2022-08-24T13:43:05;99988.22;;;26.83;66.13
35519;BME280;21627;48.216;16.482;2022-08-24T13:45:53;99995.06;;;26.58;67.84
35519;BME280;21627;48.216;16.482;2022-08-24T13:48:57;99969.66;;;26.68;68.27
35519;BME280;21627;48.216;16.482;2022-08-24T13:51:38;99978.47;;;27.10;67.25
35519;BME280;21627;48.216;16.482;2022-08-24T14:00:29;99992.53;;;26.98;65.23
35519;BME280;21627;48.216;16.482;2022-08-24T14:05:56;99988.25;;;26.54;66.74
35519;BME280;21627;48.216;16.482;2022-08-24T14:11:36;99989.75;;;26.29;67.65
35519;BME280;21627;48.216;16.482;2022-08-24T14:18:28;100000.00;;;26.64;66.71
35519;BME280;21627;48.216;16.482;2022-08-24T14:34:58;99968.03;;;27.22;61.47
35519;BME280;21627;48.216;16.482;2022-08-24T14:41:06;99979.38;;;26.96;60.71
35519;BME280;21627;48.216;16.482;2022-08-24T14:44:16;99973.63;;;26.75;63.92
35519;BME280;21627;48.216;16.482;2022-08-24T14:49:44;99983.72;;;26.56;66.18
35519;BME280;21627;48.216;16.482;2022-08-24T14:52:33;99986.78;;;26.48;64.89
35519;BME280;21627;48.216;16.482;2022-08-24T14:59:08;99975.94;;;26.39;65.30
35519;BME280;21627;48.216;16.482;2022-08-24T15:01:48;99973.44;;;26.36;67.09
35519;BME280;21627;48.216;16.482;2022-08-24T15:07:27;99971.75;;;26.63;65.88
35519;BME280;21627;48.216;16.482;2022-08-24T15:09:56;99963.44;;;26.55;66.35
35519;BME280;21627;48.216;16.482;2022-08-24T15:12:48;99976.84;;;26.52;67.22
35519;BME280;21627;48.216;16.482;2022-08-24T15:27:20;99963.63;;;26.66;66.05
35519;BME280;21627;48.216;16.482;2022-08-24T15:29:56;99950.41;;;26.50;66.14
35519;BME280;21627;48.216;16.482;2022-08-24T15:35:40;99949.50;;;26.23;67.07
35519;BME280;21627;48.216;16.482;2022-08-24T15:44:06;99969.66;;;26.25;65.90
35519;BME280;21627;48.216;16.482;2022-08-24T15:46:53;99946.00;;;26.22;66.42
35519;BME280;21627;48.216;16.482;2022-08-24T15:49:50;99962.28;;;26.30;63.63
35519;BME280;21627;48.216;16.482;2022-08-24T15:55:40;99958.19;;;26.10;64.05
35519;BME280;21627;48.216;16.482;2022-08-24T15:58:33;99964.13;;;25.85;64.74
35519;BME280;21627;48.216;16.482;2022-08-24T16:04:11;99970.03;;;25.75;68.61
35519;BME280;21627;48.216;16.482;2022-08-24T16:06:46;99959.91;;;25.67;67.06
35519;BME280;21627;48.216;16.482;2022-08-24T16:12:04;99958.47;;;25.61;71.67
35519;BME280;21627;48.216;16.482;2022-08-24T16:14:46;99962.69;;;25.50;74.05
35519;BME280;21627;48.216;16.482;2022-08-24T16:20:01;99959.44;;;25.30;73.73
35519;BME280;21627;48.216;16.482;2022-08-24T16:22:32;99957.22;;;25.22;72.91
35519;BME280;21627;48.216;16.482;2022-08-24T16:25:35;99949.09;;;25.10;71.94
35519;BME280;21627;48.216;16.482;2022-08-24T16:28:34;99947.91;;;24.99;73.03
35519;BME280;21627;48.216;16.482;2022-08-24T16:31:06;99949.22;;;24.92;72.50
35519;BME280;21627;48.216;16.482;2022-08-24T16:33:44;99939.91;;;24.85;74.59
35519;BME280;21627;48.216;16.482;2022-08-24T16:36:18;99936.38;;;24.84;75.82
35519;BME280;21627;48.216;16.482;2022-08-24T16:38:49;99943.06;;;24.76;74.66
35519;BME280;21627;48.216;16.482;2022-08-24T16:41:20;99941.63;;;24.70;75.02
35519;BME280;21627;48.216;16.482;2022-08-24T16:43:48;99937.53;;;24.65;76.56
35519;BME280;21627;48.216;16.482;2022-08-24T16:46:22;99942.47;;;24.55;75.49
35519;BME280;21627;48.216;16.482;2022-08-24T16:48:50;99945.53;;;24.47;76.68
35519;BME280;21627;48.216;16.482;2022-08-24T16:51:21;99938.91;;;24.38;78.30
35519;BME280;21627;48.216;16.482;2022-08-24T16:53:51;99949.41;;;24.40;79.51
35519;BME280;21627;48.216;16.482;2022-08-24T16:56:19;99955.78;;;24.36;79.42